KCDR/CDR METAR and TAF weather

Enter ICAO airport designator
Station Type Date Time Source
KCDR METAR 2020/09/26 09:53 UTC NOAA

KCDR 260953Z AUTO 23008KT 10SM CLR 18/00 A2968 RMK AO2 SLP024 T01780000


Station Type Date Time Source
KCDR Decoded METAR 2020/09/26 09:53 UTC NOAA

CHADRON MUNICIPAL AIRPORT, NE, United States (KCDR) 42-50N 103-06W 1010M
Sep 26, 2020 - 05:53 AM EDT / 2020.09.26 0953 UTC
Wind: from the SW (230 degrees) at 9 MPH (8 KT):0
Visibility: 10 mile(s):0
Sky conditions: clear
Temperature: 64.0 F (17.8 C)
Dew Point: 32.0 F (0.0 C)
Relative Humidity: 29%
Pressure (altimeter): 29.68 in. Hg (1005 hPa)
ob: KCDR 260953Z AUTO 23008KT 10SM CLR 18/00 A2968 RMK AO2 SLP024 T01780000
cycle: 10

Station Type Date Time Source
KCDR TAF 2020/09/26 06:33 UTC NOAA

TAF KCDR 260530Z 2606/2706 19015G25KT P6SM SCT200
FM260800 22015KT P6SM BKN150
FM261500 27020G30KT P6SM OVC100
FM261800 29025G35KT P6SM OVC100
FM262300 33012G22KT P6SM BKN250
FM270100 34005KT P6SM SKC

Example: see airport list